Time;durP1;ratioP1;P1;durP2;ratioP2;P2;SDS_P1;SDS_P2;PMS_P1;PMS_P2;Temp;Humidity;BMP_temperature;BMP_pressure;BME280_temperature;BME280_humidity;BME280_pressure;Samples;Min_cycle;Max_cycle;Signal;HPM_P1;HPM_P2
2024/03/19 00:00:11;;;;;;;;;;;;;;;14.14;51.14;98295.16;5091855;28;19963;-81
2024/03/19 00:02:37;;;;;;;;;;;;;;;14.17;52.19;98299.75;5092060;28;19923;-79
2024/03/19 00:05:02;;;;;;;;;;;;;;;14.13;52.05;98301.94;5091871;28;19916;-81
2024/03/19 00:07:27;;;;;;;;;;;;;;;14.26;51.83;98303.28;5081747;28;19974;-79
2024/03/19 00:09:53;;;;;;;;;;;;;;;14.39;51.56;98291.97;5075042;28;19920;-80
2024/03/19 00:12:18;;;;;;;;;;;;;;;14.50;51.19;98297.78;5091950;28;19920;-82
2024/03/19 00:14:43;;;;;;;;;;;;;;;14.19;51.00;98291.72;5091451;28;19962;-81
2024/03/19 00:17:09;;;;;;;;;;;;;;;14.21;50.99;98289.25;5080496;28;19990;-80
2024/03/19 00:19:34;;;;;;;;;;;;;;;14.00;51.57;98290.25;5088604;28;19916;-79
2024/03/19 00:22:00;;;;;;;;;;;;;;;13.90;52.10;98292.31;5081878;28;20016;-79
2024/03/19 00:24:25;;;;;;;;;;;;;;;13.99;51.72;98286.72;5087932;28;19916;-78
2024/03/19 00:26:50;;;;;;;;;;;;;;;14.00;51.55;98282.72;5091692;28;19916;-79
2024/03/19 00:29:16;;;;;;;;;;;;;;;13.82;51.75;98278.00;5087812;28;19935;-80
2024/03/19 00:31:41;;;;;;;;;;;;;;;13.78;52.23;98282.97;5081986;28;19916;-78
2024/03/19 00:34:08;;;;;;;;;;;;;;;13.67;52.69;98276.38;5075489;28;19917;-80
2024/03/19 00:36:34;;;;;;;;;;;;;;;13.76;52.17;98284.66;5080379;28;19971;-81
2024/03/19 00:38:59;;;;;;;;;;;;;;;13.88;51.76;98271.81;5088825;28;20008;-79
2024/03/19 00:41:26;;;;;;;;;;;;;;;13.88;51.58;98277.34;5071489;28;20081;-78
2024/03/19 00:43:52;;;;;;;;;;;;;;;14.03;51.64;98284.56;5084523;28;20323;-79
2024/03/19 00:46:17;;;;;;;;;;;;;;;14.14;51.75;98281.25;5071003;28;19916;-81
2024/03/19 00:48:42;;;;;;;;;;;;;;;14.30;50.67;98274.53;5072339;28;19926;-80
2024/03/19 00:51:08;;;;;;;;;;;;;;;14.32;50.58;98277.63;5071510;28;20269;-80
2024/03/19 00:53:33;;;;;;;;;;;;;;;14.37;51.16;98276.97;5087741;28;19932;-80
2024/03/19 00:55:58;;;;;;;;;;;;;;;14.47;50.14;98273.69;5082178;28;19920;-79
2024/03/19 00:58:24;;;;;;;;;;;;;;;14.52;49.82;98275.84;5086698;28;20396;-79
2024/03/19 01:00:51;;;;;;;;;;;;;;;14.57;49.59;98277.97;5091479;28;19939;-79
2024/03/19 01:03:16;;;;;;;;;;;;;;;14.45;49.53;98278.97;5077656;28;19920;-79
2024/03/19 01:05:41;;;;;;;;;;;;;;;14.58;49.55;98275.94;5091124;28;20031;-80
2024/03/19 01:08:07;;;;;;;;;;;;;;;14.43;49.66;98275.09;5091013;28;19919;-79
2024/03/19 01:10:32;;;;;;;;;;;;;;;14.57;49.31;98280.75;5090973;28;19916;-78
2024/03/19 01:12:57;;;;;;;;;;;;;;;14.79;49.19;98268.53;5092529;28;19916;-81
2024/03/19 01:15:24;;;;;;;;;;;;;;;14.71;49.25;98270.88;5082902;28;19963;-79
2024/03/19 01:17:49;;;;;;;;;;;;;;;14.66;49.56;98272.31;5086238;28;19916;-79
2024/03/19 01:20:17;;;;;;;;;;;;;;;14.60;49.61;98279.00;5091057;28;19935;-81
2024/03/19 01:22:43;;;;;;;;;;;;;;;14.78;49.94;98270.53;5091089;28;20017;-79
2024/03/19 01:25:08;;;;;;;;;;;;;;;14.71;49.81;98272.94;5091316;28;20295;-79
2024/03/19 01:27:34;;;;;;;;;;;;;;;14.95;49.75;98277.19;5107002;28;19923;-79
2024/03/19 01:29:59;;;;;;;;;;;;;;;14.63;50.04;98267.72;5104033;28;19916;-79
2024/03/19 01:32:25;;;;;;;;;;;;;;;14.91;49.49;98267.50;5094819;28;19916;-80
2024/03/19 01:34:50;;;;;;;;;;;;;;;14.60;50.50;98268.66;5083441;28;19920;-81
2024/03/19 01:37:15;;;;;;;;;;;;;;;14.68;50.79;98271.84;5095713;28;20376;-79
2024/03/19 01:39:41;;;;;;;;;;;;;;;14.66;50.72;98272.31;5096109;28;20394;-79
2024/03/19 01:42:06;;;;;;;;;;;;;;;14.33;51.84;98268.03;5079509;28;20666;-79
2024/03/19 01:44:31;;;;;;;;;;;;;;;14.50;51.10;98275.53;5082769;28;19920;-81
2024/03/19 01:46:56;;;;;;;;;;;;;;;14.52;51.53;98277.84;5079654;28;20388;-80
2024/03/19 01:49:24;;;;;;;;;;;;;;;14.38;51.27;98270.97;5082660;28;19920;-80
2024/03/19 01:51:49;;;;;;;;;;;;;;;14.30;52.39;98271.75;5092975;28;20003;-80
2024/03/19 01:54:14;;;;;;;;;;;;;;;14.21;52.64;98272.59;5075405;28;19952;-81
2024/03/19 01:56:40;;;;;;;;;;;;;;;14.32;52.93;98261.72;5075854;28;19924;-79
2024/03/19 01:59:05;;;;;;;;;;;;;;;14.54;51.76;98270.56;5087347;28;20063;-79
2024/03/19 02:01:31;;;;;;;;;;;;;;;14.38;51.35;98270.97;5089058;28;19999;-79
2024/03/19 02:03:56;;;;;;;;;;;;;;;14.50;51.15;98264.41;5086580;28;19923;-80
2024/03/19 02:06:21;;;;;;;;;;;;;;;14.60;51.84;98265.09;5075146;28;20003;-80
2024/03/19 02:09:00;;;;;;;;;;;;;;;14.65;52.17;98262.44;5094346;28;19959;-79
2024/03/19 02:11:25;;;;;;;;;;;;;;;15.00;52.00;98267.44;5095304;28;19916;-80
2024/03/19 02:13:51;;;;;;;;;;;;;;;14.88;52.97;98268.47;5094405;28;19943;-78
2024/03/19 02:16:16;;;;;;;;;;;;;;;14.85;54.02;98272.19;5093914;28;19991;-79
2024/03/19 02:18:41;;;;;;;;;;;;;;;15.03;54.96;98263.69;5093983;28;19920;-80
2024/03/19 02:21:07;;;;;;;;;;;;;;;14.85;56.59;98266.63;5094881;28;19920;-79
2024/03/19 02:23:32;;;;;;;;;;;;;;;14.62;57.33;98282.84;5093894;28;19945;-79
2024/03/19 02:25:57;;;;;;;;;;;;;;;15.02;57.21;98271.25;5077215;28;19924;-81
2024/03/19 02:28:23;;;;;;;;;;;;;;;14.75;58.23;98270.72;5073499;28;19931;-80
2024/03/19 02:30:48;;;;;;;;;;;;;;;14.63;58.99;98278.84;5088438;28;20045;-79
2024/03/19 02:33:13;;;;;;;;;;;;;;;14.56;59.40;98278.44;5082802;28;19932;-81
2024/03/19 02:35:39;;;;;;;;;;;;;;;14.74;58.36;98278.28;5094969;28;20311;-80
2024/03/19 02:38:04;;;;;;;;;;;;;;;14.77;59.29;98271.03;5084888;28;19916;-80
2024/03/19 02:40:29;;;;;;;;;;;;;;;14.72;60.56;98263.31;5089090;28;20383;-80
2024/03/19 02:42:55;;;;;;;;;;;;;;;14.87;59.32;98278.06;5085294;28;20000;-81
2024/03/19 02:45:22;;;;;;;;;;;;;;;14.48;61.57;98280.00;5088607;28;19916;-80
2024/03/19 02:47:47;;;;;;;;;;;;;;;14.35;62.45;98280.22;5094701;28;19920;-81
2024/03/19 02:50:12;;;;;;;;;;;;;;;14.32;63.67;98272.06;5091713;28;19928;-79
2024/03/19 02:52:38;;;;;;;;;;;;;;;14.35;63.92;98280.22;5073251;28;19916;-81
2024/03/19 02:55:03;;;;;;;;;;;;;;;14.20;64.28;98277.38;5087912;28;19946;-80
2024/03/19 02:57:29;;;;;;;;;;;;;;;14.37;63.54;98271.41;5093598;28;19920;-83
2024/03/19 02:59:54;;;;;;;;;;;;;;;14.25;63.72;98270.41;5093332;28;19916;-79
2024/03/19 03:02:19;;;;;;;;;;;;;;;14.39;64.05;98263.41;5085588;28;19940;-81
2024/03/19 03:04:44;;;;;;;;;;;;;;;14.15;64.67;98272.47;5088659;28;19920;-81
2024/03/19 03:07:10;;;;;;;;;;;;;;;14.31;63.77;98262.94;5092771;28;19916;-78
2024/03/19 03:09:35;;;;;;;;;;;;;;;14.55;63.32;98272.09;5092824;28;19963;-80
2024/03/19 03:12:00;;;;;;;;;;;;;;;14.43;62.52;98264.00;5084948;28;19923;-82
2024/03/19 03:14:25;;;;;;;;;;;;;;;14.36;62.75;98265.06;5086318;28;19916;-82
2024/03/19 03:16:51;;;;;;;;;;;;;;;14.75;61.39;98256.81;5079904;28;19920;-79
2024/03/19 03:19:16;;;;;;;;;;;;;;;14.84;60.21;98254.72;5091929;28;20620;-82
2024/03/19 03:21:41;;;;;;;;;;;;;;;14.72;61.47;98260.53;5072577;28;19921;-79
2024/03/19 03:24:08;;;;;;;;;;;;;;;14.73;61.26;98256.53;5074592;28;19970;-80
2024/03/19 03:26:33;;;;;;;;;;;;;;;14.71;61.72;98265.31;5092603;28;19924;-80
2024/03/19 03:28:58;;;;;;;;;;;;;;;14.92;60.47;98274.59;5093963;28;19955;-82
2024/03/19 03:31:24;;;;;;;;;;;;;;;14.99;60.61;98265.91;5092341;28;19927;-81
2024/03/19 03:33:52;;;;;;;;;;;;;;;15.21;59.46;98269.09;5093466;28;20399;-80
2024/03/19 03:36:17;;;;;;;;;;;;;;;15.31;58.94;98259.41;5092425;28;19916;-79
2024/03/19 03:38:42;;;;;;;;;;;;;;;15.35;59.61;98262.78;5092719;28;20315;-80
2024/03/19 03:41:08;;;;;;;;;;;;;;;15.02;59.80;98259.38;5092703;28;19916;-81
2024/03/19 03:43:34;;;;;;;;;;;;;;;15.01;59.54;98257.81;5078673;28;19967;-79
2024/03/19 03:45:59;;;;;;;;;;;;;;;15.02;59.85;98264.94;5092496;28;19923;-83
2024/03/19 03:48:25;;;;;;;;;;;;;;;15.00;60.28;98267.44;5093100;28;19920;-79
2024/03/19 03:50:50;;;;;;;;;;;;;;;14.93;61.17;98265.03;5079176;28;19920;-80
2024/03/19 03:53:15;;;;;;;;;;;;;;;14.82;61.76;98268.34;5091759;28;19916;-79
2024/03/19 03:55:41;;;;;;;;;;;;;;;14.87;61.03;98273.25;5073003;28;19920;-79
2024/03/19 03:58:06;;;;;;;;;;;;;;;14.94;60.29;98266.56;5072119;28;19998;-82
2024/03/19 04:00:33;;;;;;;;;;;;;;;14.97;59.87;98262.81;5079873;28;19912;-79
2024/03/19 04:02:58;;;;;;;;;;;;;;;15.02;59.97;98267.72;5092353;28;19934;-82
2024/03/19 04:05:24;;;;;;;;;;;;;;;15.17;59.03;98262.94;5073145;28;20392;-83
2024/03/19 04:07:49;;;;;;;;;;;;;;;15.17;58.97;98260.16;5085398;28;19927;-79
2024/03/19 04:10:15;;;;;;;;;;;;;;;15.21;59.08;98266.31;5085678;28;19921;-80
2024/03/19 04:12:42;;;;;;;;;;;;;;;14.94;59.72;98264.56;5085720;28;19923;-77
2024/03/19 04:15:08;;;;;;;;;;;;;;;14.98;60.40;98264.34;5084482;28;19917;-79
2024/03/19 04:17:34;;;;;;;;;;;;;;;14.73;60.74;98264.84;5102036;28;19916;-80
2024/03/19 04:20:00;;;;;;;;;;;;;;;14.88;60.30;98269.25;5102310;28;19916;-79
2024/03/19 04:22:26;;;;;;;;;;;;;;;14.87;60.04;98264.13;5091668;28;20429;-81
2024/03/19 04:24:51;;;;;;;;;;;;;;;15.11;59.81;98270.44;5084849;28;19920;-81
2024/03/19 04:27:18;;;;;;;;;;;;;;;14.89;60.09;98270.00;5071071;28;19974;-82
2024/03/19 04:29:44;;;;;;;;;;;;;;;15.00;59.63;98284.13;5078024;28;19926;-82
2024/03/19 04:32:09;;;;;;;;;;;;;;;15.01;60.07;98277.28;5079291;28;19995;-82
2024/03/19 04:34:34;;;;;;;;;;;;;;;15.15;60.01;98276.56;5091094;28;19916;-80
2024/03/19 04:36:59;;;;;;;;;;;;;;;15.17;59.90;98276.88;5091275;28;19920;-81
2024/03/19 04:39:25;;;;;;;;;;;;;;;14.94;60.78;98270.13;5084954;28;20360;-80
2024/03/19 04:41:50;;;;;;;;;;;;;;;14.99;62.05;98277.03;5071048;28;19924;-82
2024/03/19 04:44:15;;;;;;;;;;;;;;;15.11;61.27;98276.00;5092379;28;19951;-80
2024/03/19 04:46:41;;;;;;;;;;;;;;;15.23;61.06;98277.75;5091364;28;19924;-81
2024/03/19 04:49:06;;;;;;;;;;;;;;;15.22;59.70;98281.75;5091111;28;20018;-81
2024/03/19 04:51:31;;;;;;;;;;;;;;;15.24;60.50;98287.63;5091331;28;20014;-83
2024/03/19 04:53:57;;;;;;;;;;;;;;;15.47;59.22;98292.34;5090742;28;20002;-79
2024/03/19 04:56:22;;;;;;;;;;;;;;;15.20;60.00;98280.69;5091304;28;19927;-79
2024/03/19 04:58:48;;;;;;;;;;;;;;;14.75;61.55;98285.41;5077639;28;19916;-81
2024/03/19 05:01:14;;;;;;;;;;;;;;;14.97;62.51;98285.84;5091200;28;20399;-81
2024/03/19 05:03:39;;;;;;;;;;;;;;;14.84;63.02;98287.31;5090629;28;19916;-79
2024/03/19 05:06:04;;;;;;;;;;;;;;;14.92;62.31;98285.72;5091215;28;19920;-80
2024/03/19 05:08:31;;;;;;;;;;;;;;;15.05;61.42;98283.47;5077216;28;19963;-80
2024/03/19 05:10:56;;;;;;;;;;;;;;;15.20;60.37;98291.81;5079822;28;19951;-81
2024/03/19 05:13:21;;;;;;;;;;;;;;;15.36;59.65;98289.38;5089625;28;19974;-82
2024/03/19 05:15:46;;;;;;;;;;;;;;;15.22;59.53;98284.53;5090964;28;20291;-81
2024/03/19 05:18:12;;;;;;;;;;;;;;;15.41;58.35;98299.84;5085727;28;19931;-83
2024/03/19 05:20:37;;;;;;;;;;;;;;;15.39;58.05;98293.19;5082256;28;20372;-80
2024/03/19 05:23:02;;;;;;;;;;;;;;;15.40;58.09;98294.75;5085842;28;19920;-80
2024/03/19 05:25:27;;;;;;;;;;;;;;;15.13;59.16;98298.53;5070749;28;19924;-80
2024/03/19 05:27:54;;;;;;;;;;;;;;;15.20;59.78;98300.16;5084265;28;20426;-79
2024/03/19 05:30:20;;;;;;;;;;;;;;;15.59;58.52;98300.91;5081919;28;19920;-80
2024/03/19 05:32:45;;;;;;;;;;;;;;;15.55;59.39;98305.94;5086193;28;19938;-81
2024/03/19 05:35:10;;;;;;;;;;;;;;;15.58;58.93;98302.16;5083114;28;19970;-81
2024/03/19 05:37:35;;;;;;;;;;;;;;;15.64;58.59;98306.59;5076976;28;19989;-82
2024/03/19 05:40:01;;;;;;;;;;;;;;;15.59;58.68;98304.47;5090619;28;20364;-81
2024/03/19 05:42:26;;;;;;;;;;;;;;;15.72;59.11;98310.53;5090632;28;20427;-80
2024/03/19 05:44:53;;;;;;;;;;;;;;;15.42;59.94;98314.53;5092041;28;20352;-82
2024/03/19 05:47:18;;;;;;;;;;;;;;;15.97;58.18;98309.19;5076957;28;19916;-80
2024/03/19 05:49:43;;;;;;;;;;;;;;;15.55;59.92;98300.34;5090552;28;20012;-79
2024/03/19 05:52:09;;;;;;;;;;;;;;;15.69;60.06;98305.91;5091477;28;19920;-79
2024/03/19 05:54:34;;;;;;;;;;;;;;;16.10;58.15;98306.06;5090241;28;20331;-79
2024/03/19 05:56:59;;;;;;;;;;;;;;;16.72;57.01;98310.53;5090321;28;20094;-80
2024/03/19 05:59:25;;;;;;;;;;;;;;;16.63;57.08;98306.63;5090688;28;19944;-81
2024/03/19 06:01:50;;;;;;;;;;;;;;;16.92;55.51;98311.31;5090571;28;19916;-80
2024/03/19 06:04:16;;;;;;;;;;;;;;;17.50;53.43;98306.59;5090526;28;20390;-81
2024/03/19 06:06:41;;;;;;;;;;;;;;;17.71;52.42;98316.50;5075096;28;20281;-81
2024/03/19 06:09:07;;;;;;;;;;;;;;;18.22;51.35;98309.28;5091285;28;19920;-81
2024/03/19 06:11:32;;;;;;;;;;;;;;;18.15;49.89;98309.72;5092028;28;19916;-81
2024/03/19 06:13:58;;;;;;;;;;;;;;;18.49;49.12;98310.72;5090766;28;19924;-80
2024/03/19 06:16:23;;;;;;;;;;;;;;;18.63;47.93;98315.41;5080021;28;20414;-80
2024/03/19 06:18:48;;;;;;;;;;;;;;;18.90;47.12;98308.41;5093749;28;19912;-82
2024/03/19 06:21:15;;;;;;;;;;;;;;;19.26;46.94;98313.13;5092857;28;19919;-80
2024/03/19 06:23:41;;;;;;;;;;;;;;;19.43;46.29;98319.53;5082771;28;20007;-81
2024/03/19 06:26:07;;;;;;;;;;;;;;;19.28;45.64;98319.00;5090932;28;20006;-80
2024/03/19 06:28:32;;;;;;;;;;;;;;;19.77;45.45;98317.59;5073441;28;19944;-83
2024/03/19 06:30:57;;;;;;;;;;;;;;;19.93;45.13;98310.47;5089008;28;19962;-80
2024/03/19 06:33:22;;;;;;;;;;;;;;;20.19;44.11;98308.16;5093683;28;19919;-80
2024/03/19 06:35:49;;;;;;;;;;;;;;;20.14;43.78;98320.16;5094256;28;19924;-79
2024/03/19 06:38:14;;;;;;;;;;;;;;;19.76;44.09;98318.88;5091548;28;20364;-80
2024/03/19 06:40:39;;;;;;;;;;;;;;;20.03;44.03;98325.75;5085522;28;19921;-79
2024/03/19 06:43:05;;;;;;;;;;;;;;;19.76;44.65;98326.53;5084691;28;19919;-78
2024/03/19 06:45:30;;;;;;;;;;;;;;;19.78;44.12;98326.75;5084267;28;19920;-79
2024/03/19 06:47:56;;;;;;;;;;;;;;;19.81;44.03;98325.75;5092873;28;20391;-80
2024/03/19 06:50:22;;;;;;;;;;;;;;;20.05;43.89;98331.63;5092849;28;20384;-80
2024/03/19 06:52:48;;;;;;;;;;;;;;;19.97;43.83;98327.03;5081596;28;19971;-80
2024/03/19 06:55:14;;;;;;;;;;;;;;;20.57;42.64;98331.84;5078552;28;19965;-82
2024/03/19 06:57:40;;;;;;;;;;;;;;;20.74;41.68;98329.00;5081753;28;19970;-81
2024/03/19 07:00:14;;;;;;;;;;;;;;;20.40;42.20;98327.56;5093542;28;19920;-79
2024/03/19 07:02:40;;;;;;;;;;;;;;;20.34;42.36;98332.41;5094454;28;19916;-81
2024/03/19 07:05:07;;;;;;;;;;;;;;;20.50;41.05;98337.22;5110238;28;19976;-80
2024/03/19 07:07:32;;;;;;;;;;;;;;;20.80;39.67;98329.00;5098243;28;19984;-79
2024/03/19 07:09:58;;;;;;;;;;;;;;;21.16;39.92;98339.09;5091613;28;19959;-80
2024/03/19 07:12:23;;;;;;;;;;;;;;;21.00;39.58;98337.09;5082487;28;19922;-82
2024/03/19 07:14:48;;;;;;;;;;;;;;;21.20;38.77;98341.66;5077214;28;19998;-81
2024/03/19 07:17:14;;;;;;;;;;;;;;;21.38;37.77;98339.00;5090428;28;20453;-80
2024/03/19 07:19:40;;;;;;;;;;;;;;;22.42;36.82;98346.50;5089069;28;19920;-80
2024/03/19 07:22:05;;;;;;;;;;;;;;;23.68;34.80;98344.03;5072181;28;19916;-81
2024/03/19 07:24:31;;;;;;;;;;;;;;;24.25;33.13;98345.47;5087864;28;20350;-81
2024/03/19 07:26:56;;;;;;;;;;;;;;;24.14;32.99;98348.44;5090299;28;20367;-81
2024/03/19 07:29:21;;;;;;;;;;;;;;;24.06;33.11;98348.31;5091508;28;19934;-83
2024/03/19 07:31:47;;;;;;;;;;;;;;;23.77;32.90;98357.75;5092481;28;19947;-81
2024/03/19 07:34:13;;;;;;;;;;;;;;;23.77;33.24;98350.03;5090424;28;20007;-81
2024/03/19 07:36:39;;;;;;;;;;;;;;;23.00;33.99;98355.38;5071931;28;19921;-81
2024/03/19 07:39:04;;;;;;;;;;;;;;;22.13;35.71;98350.81;5075989;28;20376;-81
2024/03/19 07:41:30;;;;;;;;;;;;;;;21.77;36.96;98352.06;5084058;28;19916;-81
2024/03/19 07:43:56;;;;;;;;;;;;;;;21.29;37.66;98353.34;5075556;28;19917;-83
2024/03/19 07:46:21;;;;;;;;;;;;;;;21.35;38.05;98362.53;5092262;28;19919;-83
2024/03/19 07:48:46;;;;;;;;;;;;;;;21.75;37.67;98363.84;5091710;28;19912;-82
2024/03/19 07:51:12;;;;;;;;;;;;;;;21.93;37.43;98368.09;5093845;28;19973;-81
2024/03/19 07:53:37;;;;;;;;;;;;;;;22.16;36.78;98363.06;5075356;28;19982;-85
2024/03/19 07:56:02;;;;;;;;;;;;;;;21.27;38.69;98367.19;5072814;28;19927;-81
2024/03/19 07:58:28;;;;;;;;;;;;;;;21.47;37.77;98355.56;5084518;28;19920;-80
2024/03/19 08:00:53;;;;;;;;;;;;;;;21.94;37.34;98370.34;5082491;28;19916;-81
2024/03/19 08:03:19;;;;;;;;;;;;;;;22.24;36.90;98355.59;5091785;28;20395;-80
2024/03/19 08:05:45;;;;;;;;;;;;;;;22.44;36.37;98360.78;5083153;28;19923;-83
2024/03/19 08:08:11;;;;;;;;;;;;;;;22.56;36.35;98365.03;5087944;28;19934;-79
2024/03/19 08:10:36;;;;;;;;;;;;;;;22.58;36.25;98365.25;5091648;28;19912;-80
2024/03/19 08:13:02;;;;;;;;;;;;;;;22.02;37.29;98367.00;5091179;28;19912;-82
2024/03/19 08:15:29;;;;;;;;;;;;;;;21.50;38.37;98373.44;5083204;28;19955;-80
2024/03/19 08:17:54;;;;;;;;;;;;;;;21.53;38.71;98364.72;5087752;28;19923;-82
2024/03/19 08:20:20;;;;;;;;;;;;;;;21.68;37.63;98367.22;5081918;28;19912;-84
2024/03/19 08:22:47;;;;;;;;;;;;;;;21.29;38.95;98372.25;5087287;28;19916;-81
2024/03/19 08:25:13;;;;;;;;;;;;;;;20.98;40.57;98362.88;5082952;28;19925;-84
2024/03/19 08:27:39;;;;;;;;;;;;;;;20.01;42.68;98355.59;5074117;28;19947;-82
2024/03/19 08:30:05;;;;;;;;;;;;;;;19.53;43.54;98367.00;5091304;28;19973;-82
2024/03/19 08:32:30;;;;;;;;;;;;;;;19.43;42.60;98363.59;5074543;28;20449;-82
2024/03/19 08:34:55;;;;;;;;;;;;;;;19.48;43.75;98368.50;5060510;28;20026;-83
2024/03/19 08:37:22;;;;;;;;;;;;;;;19.31;44.48;98362.81;5085108;28;20441;-85
2024/03/19 08:39:47;;;;;;;;;;;;;;;19.07;44.82;98354.81;5082048;28;19913;-82
2024/03/19 08:42:12;;;;;;;;;;;;;;;19.10;43.91;98359.44;5089381;28;19920;-80
2024/03/19 08:44:38;;;;;;;;;;;;;;;19.16;43.62;98365.06;5072164;28;19912;-80
2024/03/19 08:47:05;;;;;;;;;;;;;;;19.08;43.24;98359.16;5087157;28;20141;-80
2024/03/19 08:49:30;;;;;;;;;;;;;;;18.49;44.44;98361.84;5083280;28;19919;-82
2024/03/19 08:51:56;;;;;;;;;;;;;;;18.40;44.68;98359.22;5088033;28;19913;-82
2024/03/19 08:54:21;;;;;;;;;;;;;;;18.29;44.85;98364.75;5073762;28;19928;-80
2024/03/19 08:56:48;;;;;;;;;;;;;;;17.99;45.35;98360.69;5086854;28;21349;-81
2024/03/19 08:59:14;;;;;;;;;;;;;;;18.40;45.53;98362.03;5091791;28;19923;-80
2024/03/19 09:01:39;;;;;;;;;;;;;;;18.38;46.34;98361.00;5091649;28;19985;-81
2024/03/19 09:04:06;;;;;;;;;;;;;;;18.33;45.29;98367.31;5091007;28;19962;-83
2024/03/19 09:06:31;;;;;;;;;;;;;;;18.46;46.07;98362.84;5088664;28;19912;-82
2024/03/19 09:08:57;;;;;;;;;;;;;;;18.27;45.69;98358.88;5079687;28;19916;-82
2024/03/19 09:11:22;;;;;;;;;;;;;;;18.44;45.78;98359.78;5089323;28;20351;-80
2024/03/19 09:13:47;;;;;;;;;;;;;;;18.41;47.08;98365.59;5091273;28;19912;-82
2024/03/19 09:16:13;;;;;;;;;;;;;;;18.25;48.44;98364.22;5089855;28;19916;-79
2024/03/19 09:18:41;;;;;;;;;;;;;;;17.93;49.52;98359.88;5078948;28;19912;-80
2024/03/19 09:21:07;;;;;;;;;;;;;;;17.91;49.87;98365.94;5085392;28;19912;-80
2024/03/19 09:23:32;;;;;;;;;;;;;;;17.56;52.01;98368.88;5089896;28;19912;-80
2024/03/19 09:25:58;;;;;;;;;;;;;;;17.44;51.85;98373.56;5089877;28;20380;-82
2024/03/19 09:28:23;;;;;;;;;;;;;;;17.41;51.92;98371.78;5091318;28;20486;-82
2024/03/19 09:30:48;;;;;;;;;;;;;;;17.33;52.27;98375.47;5078533;28;19916;-80
2024/03/19 09:33:14;;;;;;;;;;;;;;;17.31;53.55;98378.75;5090505;28;19920;-83
2024/03/19 09:35:39;;;;;;;;;;;;;;;16.41;54.98;98383.56;5091647;28;20036;-80
2024/03/19 09:38:04;;;;;;;;;;;;;;;16.22;55.59;98374.66;5090592;28;19916;-82
2024/03/19 09:40:30;;;;;;;;;;;;;;;15.98;58.57;98388.72;5077290;28;19924;-81
2024/03/19 09:42:55;;;;;;;;;;;;;;;15.81;59.52;98394.00;5092275;28;19912;-81
2024/03/19 09:45:23;;;;;;;;;;;;;;;15.55;59.21;98389.47;5090004;28;19920;-81
2024/03/19 09:47:49;;;;;;;;;;;;;;;15.57;61.26;98398.84;5072407;28;19916;-84
2024/03/19 09:50:15;;;;;;;;;;;;;;;15.38;61.44;98400.22;5077924;28;20273;-81
2024/03/19 09:52:40;;;;;;;;;;;;;;;15.46;61.19;98418.88;5091610;28;19916;-82
2024/03/19 09:55:13;;;;;;;;;;;;;;;15.03;62.71;98409.13;5089459;28;19920;-82
2024/03/19 09:57:38;;;;;;;;;;;;;;;15.16;62.99;98414.47;5104969;28;19935;-81
2024/03/19 10:00:07;;;;;;;;;;;;;;;15.66;63.20;98411.94;5081998;28;19928;-84
2024/03/19 10:02:32;;;;;;;;;;;;;;;15.56;61.57;98421.59;5084178;28;19920;-81
2024/03/19 10:04:57;;;;;;;;;;;;;;;15.60;61.14;98425.00;5082669;28;20295;-84
2024/03/19 10:07:24;;;;;;;;;;;;;;;15.31;60.93;98425.66;5081751;28;19970;-82
2024/03/19 10:09:51;;;;;;;;;;;;;;;15.11;61.88;98431.81;5091252;28;20679;-82
2024/03/19 10:12:17;;;;;;;;;;;;;;;15.34;61.29;98433.81;5094934;28;19912;-83
2024/03/19 10:14:43;;;;;;;;;;;;;;;15.12;58.52;98441.72;5092336;28;20406;-81
2024/03/19 10:17:13;;;;;;;;;;;;;;;15.20;59.32;98433.75;5086197;28;19983;-85
2024/03/19 10:19:39;;;;;;;;;;;;;;;15.58;59.06;98435.84;5096449;28;19916;-82
2024/03/19 10:22:07;;;;;;;;;;;;;;;15.33;59.73;98437.06;5094619;28;20445;-85
2024/03/19 10:24:32;;;;;;;;;;;;;;;15.32;61.60;98441.88;5094606;28;19952;-82
2024/03/19 10:26:58;;;;;;;;;;;;;;;15.13;62.08;98440.44;5095922;28;19919;-84
2024/03/19 10:29:23;;;;;;;;;;;;;;;14.86;64.13;98444.16;5094366;28;20011;-82
2024/03/19 10:31:49;;;;;;;;;;;;;;;14.74;62.15;98447.94;5094668;28;19920;-84
2024/03/19 10:34:18;;;;;;;;;;;;;;;14.87;63.51;98442.94;5094456;28;19916;-85
2024/03/19 10:36:45;;;;;;;;;;;;;;;14.69;63.86;98447.81;5094571;28;20062;-83
2024/03/19 10:39:11;;;;;;;;;;;;;;;14.72;65.79;98452.41;5089524;28;19954;-85
2024/03/19 10:41:37;;;;;;;;;;;;;;;15.01;69.14;98450.56;5086097;28;19998;-84
2024/03/19 10:44:02;;;;;;;;;;;;;;;15.25;68.58;98456.13;5089963;28;20380;-82
2024/03/19 10:46:29;;;;;;;;;;;;;;;15.17;69.33;98456.97;5085779;28;20341;-83
2024/03/19 10:48:55;;;;;;;;;;;;;;;14.96;68.99;98461.56;5094192;28;19916;-83
2024/03/19 10:51:20;;;;;;;;;;;;;;;15.11;69.87;98454.09;5083474;28;19916;-87
2024/03/19 10:53:46;;;;;;;;;;;;;;;14.93;70.86;98459.75;5088455;28;20007;-82
2024/03/19 10:56:13;;;;;;;;;;;;;;;14.69;68.74;98451.38;5084765;28;19920;-82
2024/03/19 10:58:39;;;;;;;;;;;;;;;14.88;68.22;98455.59;5080608;28;19916;-82
2024/03/19 11:01:04;;;;;;;;;;;;;;;14.85;68.99;98455.75;5093609;28;19994;-85
2024/03/19 11:03:30;;;;;;;;;;;;;;;14.91;67.11;98454.66;5094078;28;19912;-84
2024/03/19 11:05:58;;;;;;;;;;;;;;;14.95;66.13;98454.47;5083134;28;19917;-83
2024/03/19 11:08:25;;;;;;;;;;;;;;;15.22;64.66;98457.09;5093994;28;19923;-83
2024/03/19 11:10:50;;;;;;;;;;;;;;;15.35;63.66;98454.84;5095828;28;19919;-83
2024/03/19 11:13:21;;;;;;;;;;;;;;;15.63;63.05;98466.56;5094207;28;19912;-84
2024/03/19 11:15:46;;;;;;;;;;;;;;;15.48;64.23;98460.94;5094508;28;20345;-84
2024/03/19 11:18:12;;;;;;;;;;;;;;;15.60;61.44;98461.97;5094284;28;20007;-85
2024/03/19 11:20:44;;;;;;;;;;;;;;;15.54;61.27;98461.09;5095242;28;19930;-83
2024/03/19 11:23:12;;;;;;;;;;;;;;;15.47;60.02;98459.41;5095013;28;19916;-83
2024/03/19 11:25:38;;;;;;;;;;;;;;;15.44;59.72;98457.56;5094007;28;19916;-84
2024/03/19 11:28:17;;;;;;;;;;;;;;;15.81;60.27;98455.28;5093882;28;19920;-85
2024/03/19 11:30:45;;;;;;;;;;;;;;;15.64;59.76;98456.22;5094660;28;19931;-82
2024/03/19 11:33:12;;;;;;;;;;;;;;;15.94;58.96;98460.59;5093518;28;19924;-82
2024/03/19 11:35:37;;;;;;;;;;;;;;;16.24;59.46;98462.16;5091909;28;20019;-81
2024/03/19 11:38:02;;;;;;;;;;;;;;;16.12;58.12;98451.28;5072879;28;19948;-81
2024/03/19 11:40:29;;;;;;;;;;;;;;;16.28;59.89;98457.13;5086569;28;20543;-82
2024/03/19 11:42:55;;;;;;;;;;;;;;;16.44;58.30;98463.50;5072845;28;20470;-81
2024/03/19 11:45:20;;;;;;;;;;;;;;;16.24;57.40;98450.22;5074464;28;20023;-81
2024/03/19 11:47:46;;;;;;;;;;;;;;;16.33;55.64;98454.94;5093271;28;19916;-83
2024/03/19 11:50:18;;;;;;;;;;;;;;;16.36;57.12;98451.19;5093005;28;20053;-81
2024/03/19 11:52:47;;;;;;;;;;;;;;;16.07;57.03;98449.94;5092601;28;19916;-81
2024/03/19 11:55:13;;;;;;;;;;;;;;;15.67;56.71;98455.28;5092786;28;19928;-80
2024/03/19 11:57:38;;;;;;;;;;;;;;;15.37;57.89;98460.69;5092801;28;19920;-82
2024/03/19 12:00:10;;;;;;;;;;;;;;;15.42;59.33;98457.28;5092790;28;19920;-82
2024/03/19 12:02:35;;;;;;;;;;;;;;;15.43;57.47;98456.00;5092769;28;19920;-81
2024/03/19 12:05:01;;;;;;;;;;;;;;;15.62;57.72;98455.91;5075602;28;19916;-81
2024/03/19 12:07:26;;;;;;;;;;;;;;;15.54;55.00;98449.94;5082973;28;20019;-82
2024/03/19 12:09:52;;;;;;;;;;;;;;;15.15;58.26;98439.97;5092826;28;19917;-83
2024/03/19 12:12:17;;;;;;;;;;;;;;;14.90;57.82;98446.75;5092144;28;20314;-83
2024/03/19 12:14:44;;;;;;;;;;;;;;;15.16;57.64;98452.66;5076433;28;19917;-83
2024/03/19 12:17:11;;;;;;;;;;;;;;;15.25;57.97;98447.03;5073154;28;19920;-82
2024/03/19 12:19:36;;;;;;;;;;;;;;;15.37;55.67;98444.00;5091489;28;19947;-85
2024/03/19 12:22:02;;;;;;;;;;;;;;;15.61;56.29;98449.56;5093163;28;19943;-85
2024/03/19 12:24:27;;;;;;;;;;;;;;;15.51;57.38;98448.06;5089612;28;20355;-84
2024/03/19 12:26:54;;;;;;;;;;;;;;;15.38;55.67;98444.75;5083860;28;19921;-85
2024/03/19 12:29:20;;;;;;;;;;;;;;;15.46;55.00;98443.94;5093542;28;19916;-83
2024/03/19 12:31:49;;;;;;;;;;;;;;;15.45;55.33;98447.97;5094043;28;19918;-85
2024/03/19 12:34:37;;;;;;;;;;;;;;;15.59;54.22;98446.50;5082866;28;19916;-85
2024/03/19 12:37:13;;;;;;;;;;;;;;;15.49;54.97;98445.00;5088979;28;20486;-87
2024/03/19 12:39:39;;;;;;;;;;;;;;;15.75;55.80;98434.13;5087440;28;20004;-82